Aeroboteco Virtual Airlines! Uma nuvem a frente.



 INFORMAÇÕES METEOROLÓGICAS
METAR FOR TFFR
ADDS - METARS form results

(1922 UTC 26 May 2019)
Data provider http://aviationweather.gov/metar/data/
 
METAR text: TFFR 261900Z AUTO 12010KT 9999 FEW024 BKN029 BKN038 29/23 Q1013 NOSIG
Conditions at: TFFR (LE RAIZET , GP) observed 1900 UTC 26 May 2019
Temperature: 29.0°C (84°F)
Dewpoint: 23.0°C (73°F) [RH = 70%]
Pressure (altimeter): 29.91 inches Hg (1013.0 mb)
Winds: from the ESE (120 degrees) at 12 MPH (10 knots; 5.1 m/s)
Visibility: 6 or more miles (10+ km)
Ceiling: 2900 feet AGL
Clouds: few clouds at 2400 feet AGL
broken clouds at 2900 feet AGL
broken clouds at 3800 feet AGL
Weather: no significant weather observed at this time

METAR text: TFFR 261830Z AUTO 20005KT 140V250 9999 BKN033 OVC060 30/23 Q1013 NOSIG
Conditions at: TFFR (LE RAIZET , GP) observed 1830 UTC 26 May 2019
Temperature: 30.0°C (86°F)
Dewpoint: 23.0°C (73°F) [RH = 66%]
Pressure (altimeter): 29.91 inches Hg (1013.0 mb)
Winds: from the SSW (200 degrees) at 6 MPH (5 knots; 2.6 m/s)
Visibility: 6 or more miles (10+ km)
Ceiling: 3300 feet AGL
Clouds: broken clouds at 3300 feet AGL
overcast cloud deck at 6000 feet AGL
Weather: no significant weather observed at this time

Forecast for: TFFR (LE RAIZET , GP)
Text: TAF TFFR 261700Z 2618/2718 13010KT 9999 BKN025
Forecast period: 1800 UTC 26 May 2019 to 1800 UTC 27 May 2019
Forecast type: FROM: standard forecast or significant change
Winds: from the SE (130 degrees) at 12 MPH (10 knots; 5.1 m/s)
Visibility: 6 or more miles 10+ km)
Ceiling: 2500 feet AGL
Clouds: broken clouds at 2500 feet AGL
Weather: no significant weather forecast for this period
Text: PROB30
Forecast period: 0300 to 1000 UTC 27 May 2019
Forecast type: TEMPORARY: The following changes expected for less than half the time period
Visibility: 2.49 miles (4.01 km)
Ceiling: 1800 feet AGL
Clouds: broken clouds at 1800 feet AGL
Weather: SHRA  (rain showers)

 MAPA DO AEROPORTO

 INFORMAÇÕES DA PISTA
Pista 12 Tamanho da pista 11499 ft Largura da pista 148 ft
Elevação da pista 5 ft Ranhura da pista 1312 ft Proa da pista 101
Pista 30 Tamanho da pista 11499 ft Largura da pista 148 ft
Elevação da pista 32 ft Ranhura da pista 820 ft Proa da pista 281

 FREQUÊNCIAS DO AEROPORTO
Tipo APP Nome RAIZET APP Frequência 121.3 MHZ
Tipo ATIS Nome ATIS Frequência 127.6 MHZ
Tipo GND Nome GND Frequência 121.85 MHZ
Tipo TWR Nome RAIZET TWR Frequência 118.4 MHZ

 AUXÍLIOS DE NAVEGAÇÃO PRÓXIMOS AO AEROPORTO
Tipo VOR-DME Nome Pointe A Pitre Frequência 112900 KHZ
Tipo NDB Nome Pointe A Pitre Frequência 385 KHZ